GLD1440 PGUM-PTKK
Flight info
| Callsign | GLD1440 |
|---|---|
| Flight time | 1h 46m |
| Altitude | 39000 |
| Route | DCT UNZ DCT GUNSS R584 WUMVE DCT |
| Aircraft | C700/M-SDFGIRY/S |
Departure
| Time | 2026-04-25 23:38 |
|---|---|
| Airport | Antonio B. Won Pat International Airport (PGUM) |
Arrival
| Time | 2026-04-26 01:25 |
|---|---|
| Airport | Chuuk International Airport (PTKK) |
| Time | Latitude | Longitude | Altitude | Speed | Heading |
|---|---|---|---|---|---|
| 2026-04-25 23:23 | 13.47864 | 144.79473 | 259 ft | 0 kts | 333° |
| 2026-04-25 23:27 | 13.47853 | 144.79479 | 259 ft | 3 kts | 333° |
| 2026-04-25 23:27 | 13.47837 | 144.79487 | 258 ft | 1 kts | 333° |
| 2026-04-25 23:32 | 13.47840 | 144.79490 | 259 ft | 1 kts | 32° |
| 2026-04-25 23:32 | 13.47844 | 144.79507 | 259 ft | 5 kts | 73° |
| 2026-04-25 23:32 | 13.47866 | 144.79564 | 259 ft | 11 kts | 66° |
| 2026-04-25 23:33 | 13.47909 | 144.79634 | 260 ft | 13 kts | 35° |
| 2026-04-25 23:33 | 13.47972 | 144.79655 | 262 ft | 7 kts | 4° |
| 2026-04-25 23:33 | 13.48023 | 144.79655 | 264 ft | 9 kts | 11° |
| 2026-04-25 23:33 | 13.48061 | 144.79708 | 265 ft | 10 kts | 65° |
| 2026-04-25 23:34 | 13.48127 | 144.79719 | 265 ft | 13 kts | 336° |
| 2026-04-25 23:34 | 13.48220 | 144.79675 | 263 ft | 17 kts | 335° |
| 2026-04-25 23:34 | 13.48343 | 144.79616 | 262 ft | 21 kts | 333° |
| 2026-04-25 23:34 | 13.48476 | 144.79552 | 265 ft | 21 kts | 334° |
| 2026-04-25 23:35 | 13.48500 | 144.79460 | 264 ft | 16 kts | 244° |
| 2026-04-25 23:35 | 13.48445 | 144.79341 | 263 ft | 20 kts | 245° |
| 2026-04-25 23:35 | 13.48379 | 144.79194 | 260 ft | 25 kts | 245° |
| 2026-04-25 23:35 | 13.48303 | 144.79017 | 260 ft | 28 kts | 246° |
| 2026-04-25 23:36 | 13.48217 | 144.78838 | 257 ft | 24 kts | 244° |
| 2026-04-25 23:36 | 13.48141 | 144.78669 | 254 ft | 28 kts | 242° |
| 2026-04-25 23:36 | 13.48065 | 144.78510 | 247 ft | 27 kts | 245° |
| 2026-04-25 23:36 | 13.47969 | 144.78379 | 243 ft | 10 kts | 164° |
| 2026-04-25 23:37 | 13.47881 | 144.78424 | 243 ft | 18 kts | 157° |
| 2026-04-25 23:37 | 13.47755 | 144.78487 | 234 ft | 13 kts | 144° |
| 2026-04-25 23:37 | 13.47751 | 144.78548 | 234 ft | 0 kts | 65° |
| 2026-04-25 23:37 | 13.47791 | 144.78640 | 236 ft | 55 kts | 65° |
| 2026-04-25 23:38 | 13.48086 | 144.79296 | 301 ft | 141 kts | 64° |
| 2026-04-25 23:38 | 13.48552 | 144.80363 | 898 ft | 182 kts | 64° |
| 2026-04-25 23:38 | 13.49122 | 144.81552 | 1668 ft | 188 kts | 63° |
| 2026-04-25 23:38 | 13.49706 | 144.82736 | 1862 ft | 182 kts | 62° |
| 2026-04-25 23:39 | 13.50271 | 144.83911 | 1593 ft | 188 kts | 64° |
| 2026-04-25 23:39 | 13.50876 | 144.85327 | 1874 ft | 241 kts | 66° |
| 2026-04-25 23:39 | 13.51476 | 144.86897 | 2073 ft | 239 kts | 69° |
| 2026-04-25 23:39 | 13.52058 | 144.88515 | 2747 ft | 229 kts | 69° |
| 2026-04-25 23:40 | 13.52488 | 144.89961 | 3270 ft | 204 kts | 84° |
| 2026-04-25 23:40 | 13.52183 | 144.91343 | 3337 ft | 200 kts | 113° |
| 2026-04-25 23:40 | 13.51283 | 144.92466 | 2837 ft | 213 kts | 137° |
| 2026-04-25 23:40 | 13.49803 | 144.93063 | 1798 ft | 251 kts | 171° |
| 2026-04-25 23:41 | 13.48153 | 144.92572 | 1713 ft | 240 kts | 211° |
| 2026-04-25 23:41 | 13.47090 | 144.91396 | 1865 ft | 214 kts | 243° |
| 2026-04-25 23:41 | 13.46674 | 144.90002 | 1794 ft | 211 kts | 268° |
| 2026-04-25 23:41 | 13.46727 | 144.88364 | 1497 ft | 253 kts | 271° |
| 2026-04-25 23:42 | 13.46292 | 144.86581 | 1075 ft | 264 kts | 239° |
| 2026-04-25 23:42 | 13.45218 | 144.85108 | 978 ft | 249 kts | 228° |
| 2026-04-25 23:42 | 13.43838 | 144.83958 | 855 ft | 283 kts | 210° |
| 2026-04-25 23:42 | 13.42100 | 144.83204 | 815 ft | 257 kts | 191° |
| 2026-04-25 23:43 | 13.40418 | 144.83014 | 777 ft | 231 kts | 174° |
| 2026-04-25 23:43 | 13.38912 | 144.83241 | 661 ft | 210 kts | 159° |
| 2026-04-25 23:43 | 13.37593 | 144.83785 | 200 ft | 207 kts | 144° |
| 2026-04-25 23:43 | 13.36275 | 144.84792 | 8 ft | 249 kts | 131° |
| 2026-04-25 23:44 | 13.35855 | 144.85266 | 8 ft | 215 kts | 124° |
| 2026-04-25 23:44 | 13.47864 | 144.79473 | 258 ft | 0 kts | 333° |
| 2026-04-25 23:48 | 13.47861 | 144.79475 | 259 ft | 3 kts | 333° |
| 2026-04-25 23:48 | 13.47844 | 144.79484 | 259 ft | 3 kts | 333° |
| 2026-04-25 23:48 | 13.47836 | 144.79488 | 258 ft | 0 kts | 333° |
| 2026-04-25 23:51 | 13.47837 | 144.79488 | 258 ft | 0 kts | 336° |
| 2026-04-25 23:51 | 13.47842 | 144.79491 | 259 ft | 1 kts | 34° |
| 2026-04-25 23:51 | 13.47866 | 144.79517 | 259 ft | 7 kts | 47° |
| 2026-04-25 23:51 | 13.47901 | 144.79555 | 260 ft | 8 kts | 49° |
| 2026-04-25 23:52 | 13.47926 | 144.79599 | 260 ft | 7 kts | 66° |
| 2026-04-25 23:52 | 13.47948 | 144.79646 | 262 ft | 7 kts | 64° |
| 2026-04-25 23:52 | 13.47969 | 144.79692 | 263 ft | 7 kts | 64° |
| 2026-04-25 23:52 | 13.47991 | 144.79738 | 264 ft | 8 kts | 62° |
| 2026-04-25 23:53 | 13.48032 | 144.79759 | 265 ft | 8 kts | 343° |
| 2026-04-25 23:53 | 13.48098 | 144.79731 | 265 ft | 12 kts | 336° |
| 2026-04-25 23:53 | 13.48188 | 144.79690 | 264 ft | 17 kts | 335° |
| 2026-04-25 23:53 | 13.48306 | 144.79634 | 261 ft | 21 kts | 335° |
| 2026-04-25 23:54 | 13.48442 | 144.79568 | 265 ft | 22 kts | 334° |
| 2026-04-25 23:54 | 13.48509 | 144.79482 | 264 ft | 15 kts | 247° |
| 2026-04-25 23:54 | 13.48461 | 144.79373 | 263 ft | 19 kts | 245° |
| 2026-04-25 23:54 | 13.48401 | 144.79242 | 261 ft | 22 kts | 244° |
| 2026-04-25 23:55 | 13.48328 | 144.79086 | 259 ft | 26 kts | 245° |
| 2026-04-25 23:55 | 13.48251 | 144.78909 | 259 ft | 28 kts | 247° |
| 2026-04-25 23:55 | 13.48171 | 144.78737 | 255 ft | 26 kts | 244° |
| 2026-04-25 23:55 | 13.48087 | 144.78555 | 250 ft | 30 kts | 245° |
| 2026-04-25 23:56 | 13.47990 | 144.78341 | 242 ft | 35 kts | 245° |
| 2026-04-25 23:56 | 13.47886 | 144.78140 | 237 ft | 27 kts | 212° |
| 2026-04-25 23:56 | 13.47805 | 144.78197 | 238 ft | 16 kts | 86° |
| 2026-04-25 23:56 | 13.47839 | 144.78282 | 240 ft | 0 kts | 65° |
| 2026-04-25 23:57 | 13.47883 | 144.78378 | 243 ft | 56 kts | 65° |
| 2026-04-25 23:57 | 13.48183 | 144.79045 | 308 ft | 143 kts | 65° |
| 2026-04-25 23:57 | 13.48603 | 144.80118 | 1106 ft | 177 kts | 69° |
| 2026-04-25 23:57 | 13.49009 | 144.81322 | 2272 ft | 184 kts | 70° |
| 2026-04-25 23:58 | 13.49448 | 144.82582 | 3751 ft | 190 kts | 69° |
| 2026-04-25 23:58 | 13.49796 | 144.83900 | 5096 ft | 199 kts | 87° |
| 2026-04-25 23:58 | 13.49561 | 144.84847 | 5848 ft | 219 kts | 117° |
| 2026-04-25 23:58 | 13.48337 | 144.85914 | 6945 ft | 251 kts | 156° |
| 2026-04-25 23:59 | 13.46510 | 144.86036 | 8027 ft | 280 kts | 192° |
| 2026-04-25 23:59 | 13.44869 | 144.84971 | 9498 ft | 286 kts | 229° |
| 2026-04-25 23:59 | 13.43678 | 144.83292 | 10748 ft | 299 kts | 232° |
| 2026-04-25 23:59 | 13.42356 | 144.81527 | 11633 ft | 322 kts | 231° |
| 2026-04-26 00:00 | 13.39921 | 144.79869 | 13509 ft | 324 kts | 193° |
| 2026-04-26 00:00 | 13.38401 | 144.79754 | 14359 ft | 328 kts | 175° |
| 2026-04-26 00:00 | 13.36276 | 144.80496 | 15401 ft | 336 kts | 147° |
| 2026-04-26 00:00 | 13.34657 | 144.82247 | 16520 ft | 342 kts | 120° |
| 2026-04-26 00:01 | 13.33735 | 144.84518 | 17663 ft | 347 kts | 109° |
| 2026-04-26 00:01 | 13.32945 | 144.86887 | 18723 ft | 353 kts | 109° |
| 2026-04-26 00:01 | 13.32028 | 144.89245 | 19703 ft | 358 kts | 113° |
| 2026-04-26 00:01 | 13.30893 | 144.91533 | 20671 ft | 363 kts | 119° |
| 2026-04-26 00:02 | 13.29410 | 144.93664 | 21613 ft | 370 kts | 128° |
| 2026-04-26 00:02 | 13.27675 | 144.95642 | 22564 ft | 376 kts | 131° |
| 2026-04-26 00:02 | 13.25870 | 144.97620 | 23476 ft | 381 kts | 130° |
| 2026-04-26 00:02 | 13.24158 | 144.99722 | 24222 ft | 386 kts | 126° |
| 2026-04-26 00:03 | 13.22500 | 145.01919 | 24916 ft | 393 kts | 126° |
| 2026-04-26 00:03 | 13.20750 | 145.04122 | 25587 ft | 401 kts | 128° |
| 2026-04-26 00:03 | 13.18921 | 145.06316 | 26262 ft | 408 kts | 129° |
| 2026-04-26 00:03 | 13.17088 | 145.08567 | 26934 ft | 415 kts | 128° |
| 2026-04-26 00:04 | 13.15279 | 145.10853 | 27585 ft | 421 kts | 128° |
| 2026-04-26 00:04 | 13.13406 | 145.13197 | 28237 ft | 428 kts | 128° |
| 2026-04-26 00:04 | 13.11486 | 145.15557 | 28861 ft | 435 kts | 129° |
| 2026-04-26 00:04 | 13.09535 | 145.17960 | 29489 ft | 442 kts | 129° |
| 2026-04-26 00:05 | 13.07563 | 145.20414 | 30090 ft | 448 kts | 129° |
| 2026-04-26 00:05 | 13.05566 | 145.22899 | 30632 ft | 454 kts | 129° |
| 2026-04-26 00:05 | 13.03540 | 145.25404 | 31186 ft | 459 kts | 129° |
| 2026-04-26 00:05 | 13.01488 | 145.27939 | 31744 ft | 463 kts | 129° |
| 2026-04-26 00:06 | 12.99423 | 145.30496 | 32297 ft | 467 kts | 129° |
| 2026-04-26 00:06 | 12.97344 | 145.33073 | 32798 ft | 471 kts | 129° |
| 2026-04-26 00:06 | 12.95243 | 145.35674 | 33292 ft | 476 kts | 129° |
| 2026-04-26 00:06 | 12.93116 | 145.38302 | 33774 ft | 479 kts | 130° |
| 2026-04-26 00:07 | 12.90980 | 145.40943 | 34213 ft | 483 kts | 130° |
| 2026-04-26 00:07 | 12.88827 | 145.43607 | 34628 ft | 486 kts | 130° |
| 2026-04-26 00:07 | 12.86657 | 145.46288 | 35068 ft | 489 kts | 130° |
| 2026-04-26 00:07 | 12.84479 | 145.48977 | 35512 ft | 492 kts | 130° |
| 2026-04-26 00:08 | 12.82319 | 145.51646 | 36107 ft | 490 kts | 130° |
| 2026-04-26 00:08 | 12.80148 | 145.54329 | 36779 ft | 488 kts | 131° |
| 2026-04-26 00:08 | 12.77989 | 145.56994 | 37417 ft | 485 kts | 131° |
| 2026-04-26 00:08 | 12.75838 | 145.59646 | 38018 ft | 483 kts | 131° |
| 2026-04-26 00:09 | 12.73693 | 145.62293 | 38563 ft | 482 kts | 131° |
| 2026-04-26 00:09 | 12.71550 | 145.64937 | 38953 ft | 482 kts | 131° |
| 2026-04-26 00:09 | 12.69390 | 145.67599 | 38968 ft | 489 kts | 131° |
| 2026-04-26 00:10 | 12.65034 | 145.72968 | 38967 ft | 490 kts | 131° |
| 2026-04-26 00:10 | 12.60676 | 145.78336 | 38973 ft | 490 kts | 131° |
| 2026-04-26 00:11 | 12.56362 | 145.83646 | 38965 ft | 489 kts | 131° |
| 2026-04-26 00:11 | 12.51974 | 145.89045 | 38965 ft | 488 kts | 131° |
| 2026-04-26 00:12 | 12.47653 | 145.94358 | 38973 ft | 488 kts | 131° |
| 2026-04-26 00:12 | 12.43304 | 145.99702 | 38960 ft | 488 kts | 131° |
| 2026-04-26 00:13 | 12.38956 | 146.05042 | 38963 ft | 488 kts | 131° |
| 2026-04-26 00:13 | 12.34616 | 146.10370 | 38957 ft | 487 kts | 131° |
| 2026-04-26 00:14 | 12.30273 | 146.15696 | 38963 ft | 487 kts | 132° |
| 2026-04-26 00:14 | 12.25940 | 146.21011 | 38960 ft | 486 kts | 132° |
| 2026-04-26 00:15 | 12.21623 | 146.26299 | 38954 ft | 486 kts | 132° |
| 2026-04-26 00:15 | 12.17289 | 146.31607 | 38961 ft | 486 kts | 132° |
| 2026-04-26 00:16 | 12.12954 | 146.36912 | 38954 ft | 486 kts | 132° |
| 2026-04-26 00:16 | 12.08619 | 146.42217 | 38962 ft | 485 kts | 132° |
| 2026-04-26 00:17 | 12.04295 | 146.47504 | 38958 ft | 485 kts | 132° |
| 2026-04-26 00:17 | 11.99996 | 146.52755 | 38958 ft | 484 kts | 132° |
| 2026-04-26 00:18 | 11.95680 | 146.58029 | 38953 ft | 483 kts | 131° |
| 2026-04-26 00:18 | 11.91364 | 146.63295 | 38951 ft | 482 kts | 132° |
| 2026-04-26 00:19 | 11.87057 | 146.68552 | 38951 ft | 482 kts | 132° |
| 2026-04-26 00:19 | 11.82752 | 146.73795 | 38950 ft | 482 kts | 132° |
| 2026-04-26 00:20 | 11.78482 | 146.79004 | 38950 ft | 481 kts | 132° |
| 2026-04-26 00:20 | 11.74189 | 146.84232 | 38945 ft | 481 kts | 132° |
| 2026-04-26 00:21 | 11.69888 | 146.89466 | 38946 ft | 480 kts | 132° |
| 2026-04-26 00:21 | 11.65600 | 146.94685 | 38942 ft | 480 kts | 132° |
| 2026-04-26 00:22 | 11.61317 | 146.99892 | 38949 ft | 479 kts | 132° |
| 2026-04-26 00:22 | 11.57036 | 147.05095 | 38945 ft | 478 kts | 132° |
| 2026-04-26 00:23 | 11.52758 | 147.10291 | 38944 ft | 478 kts | 133° |
| 2026-04-26 00:23 | 11.48484 | 147.15481 | 38948 ft | 478 kts | 132° |
| 2026-04-26 00:24 | 11.44235 | 147.20641 | 38946 ft | 477 kts | 132° |
| 2026-04-26 00:24 | 11.39951 | 147.25831 | 38945 ft | 477 kts | 133° |
| 2026-04-26 00:25 | 11.35680 | 147.31015 | 38946 ft | 477 kts | 132° |
| 2026-04-26 00:25 | 11.31401 | 147.36194 | 38945 ft | 477 kts | 132° |
| 2026-04-26 00:26 | 11.27131 | 147.41368 | 38943 ft | 477 kts | 132° |
| 2026-04-26 00:26 | 11.22880 | 147.46510 | 38944 ft | 477 kts | 132° |
| 2026-04-26 00:27 | 11.18595 | 147.51701 | 38938 ft | 476 kts | 132° |
| 2026-04-26 00:27 | 11.14346 | 147.56831 | 38938 ft | 476 kts | 132° |
| 2026-04-26 00:28 | 11.10083 | 147.61991 | 38942 ft | 476 kts | 132° |
| 2026-04-26 00:28 | 11.05831 | 147.67120 | 38943 ft | 475 kts | 132° |
| 2026-04-26 00:29 | 11.01562 | 147.72278 | 38942 ft | 475 kts | 132° |
| 2026-04-26 00:29 | 10.97305 | 147.77415 | 38942 ft | 475 kts | 132° |
| 2026-04-26 00:30 | 10.93051 | 147.82546 | 38938 ft | 474 kts | 132° |
| 2026-04-26 00:30 | 10.88799 | 147.87676 | 38935 ft | 473 kts | 132° |
| 2026-04-26 00:31 | 10.84556 | 147.92787 | 38936 ft | 473 kts | 132° |
| 2026-04-26 00:31 | 10.80356 | 147.97844 | 38939 ft | 472 kts | 132° |
| 2026-04-26 00:32 | 10.76107 | 148.02962 | 38936 ft | 471 kts | 132° |
| 2026-04-26 00:32 | 10.69727 | 148.10552 | 38934 ft | 470 kts | 133° |
| 2026-04-26 00:33 | 10.65420 | 148.15553 | 38932 ft | 470 kts | 133° |
| 2026-04-26 00:33 | 10.61149 | 148.20585 | 38931 ft | 470 kts | 133° |
| 2026-04-26 00:34 | 10.56843 | 148.25595 | 38932 ft | 469 kts | 132° |
| 2026-04-26 00:34 | 10.52597 | 148.30580 | 38931 ft | 469 kts | 133° |
| 2026-04-26 00:35 | 10.48302 | 148.35584 | 38935 ft | 469 kts | 132° |
| 2026-04-26 00:35 | 10.44029 | 148.40586 | 38932 ft | 469 kts | 132° |
| 2026-04-26 00:36 | 10.39744 | 148.45583 | 38930 ft | 469 kts | 132° |
| 2026-04-26 00:36 | 10.35462 | 148.50586 | 38933 ft | 469 kts | 132° |
| 2026-04-26 00:37 | 10.31171 | 148.55587 | 38933 ft | 470 kts | 132° |
| 2026-04-26 00:37 | 10.26882 | 148.60592 | 38932 ft | 469 kts | 132° |
| 2026-04-26 00:38 | 10.22593 | 148.65587 | 38933 ft | 469 kts | 132° |
| 2026-04-26 00:38 | 10.18328 | 148.70561 | 38933 ft | 470 kts | 132° |
| 2026-04-26 00:39 | 10.14036 | 148.75554 | 38931 ft | 469 kts | 132° |
| 2026-04-26 00:39 | 10.09744 | 148.80553 | 38934 ft | 469 kts | 132° |
| 2026-04-26 00:40 | 10.05456 | 148.85540 | 38929 ft | 468 kts | 132° |
| 2026-04-26 00:40 | 10.01169 | 148.90526 | 38927 ft | 468 kts | 132° |
| 2026-04-26 00:41 | 9.96889 | 148.95502 | 38929 ft | 468 kts | 131° |
| 2026-04-26 00:41 | 9.92607 | 149.00477 | 38928 ft | 468 kts | 131° |
| 2026-04-26 00:42 | 9.88331 | 149.05444 | 38930 ft | 467 kts | 131° |
| 2026-04-26 00:42 | 9.84055 | 149.10407 | 38926 ft | 467 kts | 131° |
| 2026-04-26 00:43 | 9.79782 | 149.15365 | 38932 ft | 467 kts | 131° |
| 2026-04-26 00:43 | 9.75538 | 149.20289 | 38929 ft | 467 kts | 131° |
| 2026-04-26 00:44 | 9.71264 | 149.25242 | 38926 ft | 467 kts | 131° |
| 2026-04-26 00:44 | 9.66985 | 149.30205 | 38926 ft | 467 kts | 131° |
| 2026-04-26 00:45 | 9.63425 | 149.34327 | 38923 ft | 467 kts | 131° |
| 2026-04-26 00:45 | 9.58425 | 149.40118 | 38928 ft | 467 kts | 131° |
| 2026-04-26 00:46 | 9.54134 | 149.45083 | 38922 ft | 468 kts | 131° |
| 2026-04-26 00:46 | 9.49844 | 149.50050 | 38922 ft | 468 kts | 131° |
| 2026-04-26 00:47 | 9.46279 | 149.54171 | 38925 ft | 467 kts | 131° |
| 2026-04-26 00:47 | 9.41992 | 149.59128 | 38926 ft | 467 kts | 131° |
| 2026-04-26 00:48 | 9.37707 | 149.64077 | 38923 ft | 467 kts | 132° |
| 2026-04-26 00:48 | 9.33425 | 149.69025 | 38922 ft | 466 kts | 132° |
| 2026-04-26 00:49 | 9.29179 | 149.73927 | 38924 ft | 466 kts | 132° |
| 2026-04-26 00:49 | 9.24904 | 149.78864 | 38922 ft | 465 kts | 132° |
| 2026-04-26 00:50 | 9.20606 | 149.83820 | 38921 ft | 465 kts | 132° |
| 2026-04-26 00:50 | 9.16344 | 149.88738 | 38918 ft | 464 kts | 132° |
| 2026-04-26 00:51 | 9.12112 | 149.93616 | 38923 ft | 464 kts | 132° |
| 2026-04-26 00:51 | 9.07858 | 149.98519 | 38916 ft | 464 kts | 132° |
| 2026-04-26 00:52 | 9.03594 | 150.03432 | 38917 ft | 464 kts | 132° |
| 2026-04-26 00:52 | 8.99325 | 150.08347 | 38917 ft | 465 kts | 132° |
| 2026-04-26 00:53 | 8.95053 | 150.13265 | 38915 ft | 465 kts | 132° |
| 2026-04-26 00:53 | 8.90778 | 150.18182 | 38917 ft | 465 kts | 132° |
| 2026-04-26 00:54 | 8.86504 | 150.23101 | 38914 ft | 465 kts | 132° |
| 2026-04-26 00:54 | 8.82225 | 150.28020 | 38915 ft | 465 kts | 132° |
| 2026-04-26 00:55 | 8.77989 | 150.32889 | 38408 ft | 461 kts | 132° |
| 2026-04-26 00:55 | 8.75882 | 150.35309 | 37798 ft | 451 kts | 132° |
| 2026-04-26 00:55 | 8.73832 | 150.37664 | 37206 ft | 442 kts | 131° |
| 2026-04-26 00:56 | 8.71812 | 150.39984 | 36626 ft | 437 kts | 131° |
| 2026-04-26 00:56 | 8.69811 | 150.42282 | 36055 ft | 436 kts | 131° |
| 2026-04-26 00:56 | 8.67793 | 150.44599 | 35479 ft | 442 kts | 131° |
| 2026-04-26 00:56 | 8.65745 | 150.46949 | 34894 ft | 448 kts | 131° |
| 2026-04-26 00:57 | 8.63682 | 150.49318 | 34302 ft | 451 kts | 131° |
| 2026-04-26 00:57 | 8.61600 | 150.51709 | 33676 ft | 453 kts | 131° |
| 2026-04-26 00:57 | 8.59509 | 150.54106 | 33076 ft | 454 kts | 131° |
| 2026-04-26 00:57 | 8.57419 | 150.56505 | 32469 ft | 457 kts | 131° |
| 2026-04-26 00:58 | 8.55309 | 150.58925 | 31862 ft | 459 kts | 131° |
| 2026-04-26 00:58 | 8.53229 | 150.61309 | 31267 ft | 459 kts | 131° |
| 2026-04-26 00:58 | 8.51121 | 150.63727 | 30661 ft | 456 kts | 131° |
| 2026-04-26 00:58 | 8.49030 | 150.66123 | 30061 ft | 453 kts | 131° |
| 2026-04-26 00:59 | 8.46951 | 150.68505 | 29423 ft | 447 kts | 131° |
| 2026-04-26 00:59 | 8.44909 | 150.70846 | 28835 ft | 441 kts | 131° |
| 2026-04-26 00:59 | 8.42891 | 150.73159 | 28256 ft | 436 kts | 131° |
| 2026-04-26 00:59 | 8.40896 | 150.75444 | 27685 ft | 432 kts | 131° |
| 2026-04-26 01:00 | 8.38916 | 150.77710 | 27114 ft | 428 kts | 131° |
| 2026-04-26 01:00 | 8.36974 | 150.79934 | 26558 ft | 415 kts | 130° |
| 2026-04-26 01:00 | 8.35099 | 150.82081 | 26023 ft | 400 kts | 130° |
| 2026-04-26 01:00 | 8.33284 | 150.84159 | 25500 ft | 388 kts | 130° |
| 2026-04-26 01:01 | 8.31527 | 150.86171 | 25000 ft | 377 kts | 130° |
| 2026-04-26 01:01 | 8.29815 | 150.88131 | 24508 ft | 367 kts | 130° |
| 2026-04-26 01:01 | 8.28147 | 150.90038 | 24034 ft | 358 kts | 130° |
| 2026-04-26 01:01 | 8.26515 | 150.91905 | 23566 ft | 351 kts | 130° |
| 2026-04-26 01:02 | 8.24917 | 150.93735 | 23056 ft | 343 kts | 130° |
| 2026-04-26 01:02 | 8.23354 | 150.95522 | 22608 ft | 335 kts | 130° |
| 2026-04-26 01:02 | 8.21822 | 150.97273 | 22171 ft | 332 kts | 130° |
| 2026-04-26 01:02 | 8.20320 | 150.98992 | 21739 ft | 331 kts | 130° |
| 2026-04-26 01:03 | 8.18797 | 151.00734 | 21312 ft | 330 kts | 130° |
| 2026-04-26 01:03 | 8.17278 | 151.02470 | 20870 ft | 329 kts | 130° |
| 2026-04-26 01:03 | 8.15769 | 151.04195 | 20434 ft | 327 kts | 130° |
| 2026-04-26 01:03 | 8.14268 | 151.05910 | 20006 ft | 325 kts | 130° |
| 2026-04-26 01:04 | 8.12778 | 151.07613 | 19577 ft | 322 kts | 130° |
| 2026-04-26 01:04 | 8.11301 | 151.09301 | 19158 ft | 320 kts | 130° |
| 2026-04-26 01:04 | 8.09831 | 151.10981 | 18736 ft | 317 kts | 130° |
| 2026-04-26 01:04 | 8.08374 | 151.12644 | 18317 ft | 315 kts | 130° |
| 2026-04-26 01:05 | 8.06928 | 151.14297 | 17872 ft | 313 kts | 130° |
| 2026-04-26 01:05 | 8.05499 | 151.15928 | 17461 ft | 309 kts | 130° |
| 2026-04-26 01:05 | 8.04076 | 151.17553 | 17047 ft | 307 kts | 130° |
| 2026-04-26 01:05 | 8.02668 | 151.19162 | 16642 ft | 305 kts | 130° |
| 2026-04-26 01:06 | 8.01269 | 151.20759 | 16237 ft | 299 kts | 130° |
| 2026-04-26 01:06 | 7.99927 | 151.22290 | 15858 ft | 293 kts | 129° |
| 2026-04-26 01:06 | 7.98567 | 151.23843 | 15467 ft | 287 kts | 129° |
| 2026-04-26 01:06 | 7.97254 | 151.25341 | 15094 ft | 284 kts | 129° |
| 2026-04-26 01:07 | 7.95948 | 151.26833 | 14720 ft | 282 kts | 129° |
| 2026-04-26 01:07 | 7.94652 | 151.28312 | 14351 ft | 281 kts | 129° |
| 2026-04-26 01:07 | 7.93359 | 151.29787 | 13977 ft | 278 kts | 129° |
| 2026-04-26 01:07 | 7.92086 | 151.31238 | 13602 ft | 274 kts | 129° |
| 2026-04-26 01:08 | 7.90834 | 151.32667 | 13225 ft | 270 kts | 129° |
| 2026-04-26 01:08 | 7.89599 | 151.34075 | 12871 ft | 265 kts | 129° |
| 2026-04-26 01:08 | 7.88390 | 151.35456 | 12516 ft | 261 kts | 129° |
| 2026-04-26 01:08 | 7.87210 | 151.36801 | 12186 ft | 258 kts | 129° |
| 2026-04-26 01:09 | 7.86029 | 151.38148 | 11849 ft | 255 kts | 129° |
| 2026-04-26 01:09 | 7.84863 | 151.39477 | 11509 ft | 252 kts | 129° |
| 2026-04-26 01:09 | 7.83706 | 151.40795 | 11184 ft | 250 kts | 129° |
| 2026-04-26 01:09 | 7.82559 | 151.42105 | 10857 ft | 248 kts | 129° |
| 2026-04-26 01:10 | 7.81418 | 151.43405 | 10529 ft | 246 kts | 129° |
| 2026-04-26 01:10 | 7.80287 | 151.44694 | 10211 ft | 245 kts | 129° |
| 2026-04-26 01:10 | 7.79119 | 151.45927 | 9887 ft | 245 kts | 138° |
| 2026-04-26 01:10 | 7.77658 | 151.46829 | 9538 ft | 247 kts | 152° |
| 2026-04-26 01:11 | 7.76087 | 151.47512 | 9213 ft | 245 kts | 153° |
| 2026-04-26 01:11 | 7.74543 | 151.48208 | 8898 ft | 243 kts | 153° |
| 2026-04-26 01:11 | 7.74222 | 151.48353 | 8829 ft | 243 kts | 153° |
| 2026-04-26 01:11 | 7.72915 | 151.48940 | 8555 ft | 242 kts | 153° |
| 2026-04-26 01:12 | 7.71382 | 151.49624 | 8234 ft | 240 kts | 153° |
| 2026-04-26 01:12 | 7.69858 | 151.50304 | 7924 ft | 240 kts | 153° |
| 2026-04-26 01:12 | 7.68330 | 151.50986 | 7610 ft | 239 kts | 153° |
| 2026-04-26 01:12 | 7.66811 | 151.51665 | 7291 ft | 238 kts | 153° |
| 2026-04-26 01:13 | 7.65296 | 151.52341 | 6980 ft | 238 kts | 153° |
| 2026-04-26 01:13 | 7.63800 | 151.53010 | 6672 ft | 238 kts | 153° |
| 2026-04-26 01:13 | 7.62286 | 151.53684 | 6358 ft | 238 kts | 153° |
| 2026-04-26 01:13 | 7.60775 | 151.54362 | 6031 ft | 238 kts | 153° |
| 2026-04-26 01:14 | 7.59262 | 151.55036 | 5719 ft | 237 kts | 153° |
| 2026-04-26 01:14 | 7.57756 | 151.55708 | 5404 ft | 236 kts | 153° |
| 2026-04-26 01:14 | 7.56258 | 151.56376 | 5147 ft | 233 kts | 153° |
| 2026-04-26 01:14 | 7.54785 | 151.57032 | 4863 ft | 228 kts | 153° |
| 2026-04-26 01:15 | 7.53350 | 151.57673 | 4562 ft | 221 kts | 153° |
| 2026-04-26 01:15 | 7.51961 | 151.58292 | 4263 ft | 216 kts | 153° |
| 2026-04-26 01:15 | 7.50621 | 151.58892 | 3990 ft | 211 kts | 153° |
| 2026-04-26 01:15 | 7.49295 | 151.59482 | 3720 ft | 207 kts | 152° |
| 2026-04-26 01:16 | 7.47994 | 151.60065 | 3447 ft | 203 kts | 152° |
| 2026-04-26 01:16 | 7.46707 | 151.60637 | 3180 ft | 201 kts | 152° |
| 2026-04-26 01:16 | 7.45438 | 151.61205 | 2901 ft | 198 kts | 152° |
| 2026-04-26 01:16 | 7.44186 | 151.61763 | 2652 ft | 196 kts | 153° |
| 2026-04-26 01:17 | 7.43044 | 151.62449 | 2507 ft | 183 kts | 133° |
| 2026-04-26 01:17 | 7.42193 | 151.63333 | 2492 ft | 171 kts | 131° |
| 2026-04-26 01:17 | 7.41327 | 151.64125 | 2493 ft | 167 kts | 133° |
| 2026-04-26 01:17 | 7.40497 | 151.64931 | 2495 ft | 166 kts | 131° |
| 2026-04-26 01:18 | 7.39665 | 151.65738 | 2483 ft | 165 kts | 132° |
| 2026-04-26 01:18 | 7.38836 | 151.66541 | 2498 ft | 165 kts | 131° |
| 2026-04-26 01:18 | 7.38002 | 151.67349 | 2494 ft | 167 kts | 132° |
| 2026-04-26 01:18 | 7.37176 | 151.68146 | 2490 ft | 167 kts | 131° |
| 2026-04-26 01:19 | 7.36340 | 151.68960 | 2489 ft | 167 kts | 133° |
| 2026-04-26 01:19 | 7.35540 | 151.69781 | 2506 ft | 155 kts | 123° |
| 2026-04-26 01:19 | 7.35140 | 151.70713 | 2492 ft | 138 kts | 101° |
| 2026-04-26 01:19 | 7.35026 | 151.71651 | 2438 ft | 136 kts | 83° |
| 2026-04-26 01:20 | 7.35223 | 151.72576 | 2360 ft | 133 kts | 69° |
| 2026-04-26 01:20 | 7.35674 | 151.73378 | 2269 ft | 132 kts | 51° |
| 2026-04-26 01:20 | 7.36317 | 151.74041 | 2174 ft | 132 kts | 45° |
| 2026-04-26 01:20 | 7.36946 | 151.74712 | 2085 ft | 131 kts | 47° |
| 2026-04-26 01:21 | 7.37577 | 151.75366 | 1991 ft | 130 kts | 45° |
| 2026-04-26 01:21 | 7.38209 | 151.76022 | 1893 ft | 132 kts | 47° |
| 2026-04-26 01:21 | 7.38846 | 151.76686 | 1808 ft | 131 kts | 46° |
| 2026-04-26 01:21 | 7.39465 | 151.77323 | 1740 ft | 119 kts | 47° |
| 2026-04-26 01:22 | 7.40051 | 151.77936 | 1589 ft | 124 kts | 47° |
| 2026-04-26 01:22 | 7.40665 | 151.78567 | 1423 ft | 128 kts | 47° |
| 2026-04-26 01:22 | 7.41279 | 151.79205 | 1254 ft | 129 kts | 48° |
| 2026-04-26 01:22 | 7.41904 | 151.79858 | 1077 ft | 130 kts | 47° |
| 2026-04-26 01:23 | 7.42540 | 151.80509 | 899 ft | 127 kts | 47° |
| 2026-04-26 01:23 | 7.43170 | 151.81166 | 715 ft | 131 kts | 49° |
| 2026-04-26 01:23 | 7.43817 | 151.81842 | 526 ft | 135 kts | 47° |
| 2026-04-26 01:23 | 7.44458 | 151.82522 | 341 ft | 134 kts | 52° |
| 2026-04-26 01:24 | 7.45106 | 151.83192 | 165 ft | 135 kts | 47° |
| 2026-04-26 01:24 | 7.45745 | 151.83833 | 44 ft | 122 kts | 46° |
| 2026-04-26 01:24 | 7.46077 | 151.84184 | 13 ft | 100 kts | 53° |
| 2026-04-26 01:24 | 7.46436 | 151.84567 | 12 ft | 52 kts | 45° |
| 2026-04-26 01:25 | 7.46573 | 151.84712 | 13 ft | 25 kts | 49° |
| 2026-04-26 01:25 | 7.46692 | 151.84843 | 14 ft | 25 kts | 63° |
| 2026-04-26 01:25 | 7.46736 | 151.84889 | 14 ft | 5 kts | 270° |
| 2026-04-26 01:25 | 7.46670 | 151.84800 | 14 ft | 29 kts | 225° |
| 2026-04-26 01:26 | 7.46514 | 151.84642 | 12 ft | 34 kts | 223° |
| 2026-04-26 01:26 | 7.46345 | 151.84468 | 11 ft | 35 kts | 225° |
| 2026-04-26 01:26 | 7.46177 | 151.84298 | 12 ft | 33 kts | 231° |
| 2026-04-26 01:26 | 7.46028 | 151.84137 | 13 ft | 25 kts | 225° |
| 2026-04-26 01:27 | 7.45906 | 151.84039 | 14 ft | 18 kts | 169° |
| 2026-04-26 01:27 | 7.45858 | 151.84073 | 14 ft | 8 kts | 138° |
| 2026-04-26 01:27 | 7.45837 | 151.84111 | 14 ft | 5 kts | 140° |
| 2026-04-26 01:27 | 7.45813 | 151.84143 | 13 ft | 6 kts | 83° |
| 2026-04-26 01:28 | 7.45820 | 151.84155 | 13 ft | 0 kts | 49° |